createdAt,value
2017-11-29T00:00:27.271Z,97.33
2017-11-29T00:00:55.411Z,97.42
2017-11-29T00:01:23.480Z,98.29
2017-11-29T00:01:51.579Z,98.68
2017-11-29T00:02:19.903Z,98.58
2017-11-29T00:02:48.122Z,98.49
2017-11-29T00:03:16.407Z,98.39
2017-11-29T00:03:44.570Z,98.29
2017-11-29T00:04:12.715Z,98.87
2017-11-29T00:04:40.878Z,98.87
2017-11-29T00:05:08.740Z,98.68
2017-11-29T00:05:37.066Z,98.77
2017-11-29T00:06:05.034Z,98.58
2017-11-29T00:06:32.964Z,98.68
2017-11-29T00:07:01.504Z,99.44
2017-11-29T00:07:29.676Z,98.72
2017-11-29T00:07:57.842Z,98.49
2017-11-29T00:08:25.908Z,98.68
2017-11-29T00:08:54.121Z,98.77
2017-11-29T00:09:22.187Z,98.58
2017-11-29T00:09:50.200Z,98.77
2017-11-29T00:10:18.637Z,98.77
2017-11-29T00:10:46.841Z,99.06
2017-11-29T00:11:14.943Z,98.49
2017-11-29T00:11:43.287Z,99.06
2017-11-29T00:12:11.249Z,99.06
2017-11-29T00:12:39.365Z,98.63
2017-11-29T00:13:07.489Z,98.49
2017-11-29T00:13:35.772Z,98.82
2017-11-29T00:14:03.640Z,98.39
2017-11-29T00:14:31.796Z,98.29
2017-11-29T00:14:59.747Z,97.33
2017-11-29T00:15:27.878Z,98.19
2017-11-29T00:15:56.338Z,98.29
2017-11-29T00:16:24.411Z,98.05
2017-11-29T00:16:52.614Z,97.52
2017-11-29T00:17:20.666Z,97.14
2017-11-29T00:17:48.857Z,97.09
2017-11-29T00:18:17.049Z,97.33
2017-11-29T00:18:45.308Z,96.75
2017-11-29T00:19:13.365Z,96.37
2017-11-29T00:19:41.434Z,96.89
2017-11-29T00:20:09.466Z,96.8
2017-11-29T00:20:37.687Z,96.56
2017-11-29T00:21:06.002Z,96.56
2017-11-29T00:21:34.314Z,97.14
2017-11-29T00:22:03.333Z,96.75
2017-11-29T00:22:31.437Z,96.75
2017-11-29T00:22:59.610Z,96.89
2017-11-29T00:23:27.801Z,96.42
2017-11-29T00:23:55.804Z,95.45
2017-11-29T00:24:24.032Z,95.65
2017-11-29T00:24:52.216Z,95.94
2017-11-29T00:25:20.614Z,96.03
2017-11-29T00:25:48.928Z,95.79
2017-11-29T00:26:17.128Z,96.27
2017-11-29T00:26:45.328Z,96.47
2017-11-29T00:27:13.277Z,96.37
2017-11-29T00:27:41.322Z,96.85
2017-11-29T00:28:09.374Z,96.75
2017-11-29T00:28:37.421Z,96.85
2017-11-29T00:29:05.449Z,95.94
2017-11-29T00:29:33.537Z,95.6
2017-11-29T00:30:01.819Z,95.7
2017-11-29T00:30:29.780Z,95.21
2017-11-29T00:30:58.116Z,95.12
2017-11-29T00:31:26.462Z,95.4
2017-11-29T00:31:54.500Z,95.98
2017-11-29T00:32:22.685Z,95.7
2017-11-29T00:32:50.959Z,95.31
2017-11-29T00:33:19.109Z,95.31
2017-11-29T00:33:47.255Z,95.7
2017-11-29T00:34:15.436Z,95.79
2017-11-29T00:34:43.490Z,95.89
2017-11-29T00:35:11.851Z,95.79
2017-11-29T00:35:40.017Z,95.98
2017-11-29T00:36:08.202Z,95.7
2017-11-29T00:36:36.363Z,96.08
2017-11-29T00:37:04.331Z,96.75
2017-11-29T00:37:32.386Z,96.27
2017-11-29T00:38:00.332Z,96.85
2017-11-29T00:38:28.527Z,96.94
2017-11-29T00:38:56.575Z,96.47
2017-11-29T00:39:24.896Z,96.85
2017-11-29T00:39:53.009Z,96.37
2017-11-29T00:40:21.174Z,97.14
2017-11-29T00:40:49.347Z,97.52
2017-11-29T00:41:17.523Z,97.52
2017-11-29T00:41:45.714Z,97.62
2017-11-29T00:42:14.311Z,97.71
2017-11-29T00:42:42.538Z,97.71
2017-11-29T00:43:10.695Z,97.52
2017-11-29T00:43:38.749Z,97.33
2017-11-29T00:44:06.811Z,97.33
2017-11-29T00:44:34.943Z,97.04
2017-11-29T00:45:03.075Z,97.42
2017-11-29T00:45:31.102Z,97.62
2017-11-29T00:45:59.588Z,97.42
2017-11-29T00:46:27.430Z,97.42
2017-11-29T00:46:55.684Z,97.52
2017-11-29T00:47:23.864Z,97.33
2017-11-29T00:47:51.974Z,97.52
2017-11-29T00:48:19.953Z,97.62
2017-11-29T00:48:48.006Z,97.62
2017-11-29T00:49:16.098Z,97.42
2017-11-29T00:49:44.180Z,97.33
2017-11-29T00:50:12.237Z,97.42
2017-11-29T00:50:40.291Z,97.14
2017-11-29T00:51:08.161Z,97.71
2017-11-29T00:51:36.217Z,97.62
2017-11-29T00:52:04.377Z,97.52
2017-11-29T00:52:32.644Z,97.81
2017-11-29T00:53:00.835Z,97.62
2017-11-29T00:53:28.707Z,97.62
2017-11-29T00:53:56.871Z,97.62
2017-11-29T00:54:25.032Z,97.62
2017-11-29T00:54:53.070Z,97.62
2017-11-29T00:55:21.269Z,97.62
2017-11-29T00:55:49.445Z,97.52
2017-11-29T00:56:17.499Z,98.29
2017-11-29T00:56:45.645Z,98
2017-11-29T00:57:13.722Z,98.29
2017-11-29T00:57:42.013Z,98
2017-11-29T00:58:09.990Z,97.33
2017-11-29T00:58:38.260Z,98
2017-11-29T00:59:06.635Z,98
2017-11-29T00:59:34.877Z,97.71
2017-11-29T01:00:02.827Z,97.81
2017-11-29T01:00:30.916Z,98.58
2017-11-29T01:00:59.133Z,98.68
2017-11-29T01:01:27.695Z,98.49
2017-11-29T01:01:55.785Z,98.87
2017-11-29T01:02:23.951Z,98.68
2017-11-29T01:02:52.060Z,98.68
2017-11-29T01:03:20.136Z,98.68
2017-11-29T01:03:48.175Z,98.58
2017-11-29T01:04:16.222Z,98.58
2017-11-29T01:04:44.544Z,98.77
2017-11-29T01:05:12.706Z,99.16
2017-11-29T01:05:40.760Z,99.06
2017-11-29T01:06:08.838Z,98.87
2017-11-29T01:06:36.862Z,99.26
2017-11-29T01:07:04.707Z,99.83
2017-11-29T01:07:32.780Z,99.64
2017-11-29T01:08:00.909Z,99.73
2017-11-29T01:08:28.844Z,99.99
2017-11-29T01:08:56.928Z,99.44
2017-11-29T01:09:24.988Z,99.99
2017-11-29T01:09:53.224Z,99.99
2017-11-29T01:10:21.366Z,99.99
2017-11-29T01:10:49.453Z,99.99
2017-11-29T01:11:17.531Z,99.99
2017-11-29T01:11:45.655Z,99.99
2017-11-29T01:12:13.745Z,99.99
2017-11-29T01:12:41.895Z,99.99
2017-11-29T01:13:09.925Z,99.99
2017-11-29T01:13:37.981Z,99.99
2017-11-29T01:14:06.151Z,99.99
2017-11-29T01:14:34.117Z,99.99
2017-11-29T01:15:02.374Z,99.78
2017-11-29T01:15:30.522Z,98.91
2017-11-29T01:15:58.711Z,98.44
2017-11-29T01:16:27.074Z,98.82
2017-11-29T01:16:55.252Z,99.49
2017-11-29T01:17:23.397Z,99.98
2017-11-29T01:17:51.775Z,99.59
2017-11-29T01:18:19.917Z,99.78
2017-11-29T01:18:48.078Z,99.78
2017-11-29T01:19:16.147Z,99.21
2017-11-29T01:19:44.367Z,99.01
2017-11-29T01:20:12.528Z,98.53
2017-11-29T01:20:40.610Z,98.82
2017-11-29T01:21:08.677Z,98.44
2017-11-29T01:21:36.814Z,98.82
2017-11-29T01:22:04.894Z,98.82
2017-11-29T01:22:32.918Z,98.34
2017-11-29T01:23:01.037Z,98.44
2017-11-29T01:23:29.210Z,98.91
2017-11-29T01:23:57.354Z,99.11
2017-11-29T01:24:25.430Z,98.91
2017-11-29T01:24:53.642Z,99.11
2017-11-29T01:25:21.715Z,98.72
2017-11-29T01:25:49.892Z,98.72
2017-11-29T01:26:18.359Z,99.21
2017-11-29T01:26:46.596Z,99.01
2017-11-29T01:27:14.815Z,98.91
2017-11-29T01:27:43.099Z,99.3
2017-11-29T01:28:11.414Z,99.49
2017-11-29T01:28:39.699Z,99.78
2017-11-29T01:29:07.818Z,99.3
2017-11-29T01:29:36.099Z,99.98
2017-11-29T01:30:04.170Z,99.99
2017-11-29T01:30:32.208Z,99.4
2017-11-29T01:31:00.392Z,99.99
2017-11-29T01:31:28.419Z,99.98
2017-11-29T01:31:56.664Z,99.68
2017-11-29T01:32:24.932Z,99.78
2017-11-29T01:32:52.990Z,99.78
2017-11-29T01:33:21.089Z,99.78
2017-11-29T01:33:49.474Z,99.59
2017-11-29T01:34:17.756Z,99.73
2017-11-29T01:34:45.915Z,99.99
2017-11-29T01:35:14.189Z,99.93
2017-11-29T01:35:42.249Z,99.68
2017-11-29T01:36:10.382Z,99.98
2017-11-29T01:36:38.454Z,99.54
2017-11-29T01:37:06.496Z,99.49
2017-11-29T01:37:34.697Z,99.64
2017-11-29T01:38:02.882Z,99.78
2017-11-29T01:38:31.028Z,99.78
2017-11-29T01:38:59.240Z,99.99
2017-11-29T01:39:27.537Z,99.99
2017-11-29T01:39:55.584Z,99.99
2017-11-29T01:40:23.820Z,99.99
2017-11-29T01:40:52.055Z,99.99
2017-11-29T01:41:20.220Z,99.99
2017-11-29T01:41:49.015Z,99.99
2017-11-29T01:42:17.041Z,99.99
2017-11-29T01:42:45.320Z,99.99
2017-11-29T01:43:13.502Z,99.99
2017-11-29T01:43:41.625Z,99.99
2017-11-29T01:44:09.878Z,99.99
2017-11-29T01:44:38.275Z,99.99
2017-11-29T01:45:06.936Z,99.99
2017-11-29T01:45:35.088Z,99.99
2017-11-29T01:46:03.314Z,99.99
2017-11-29T01:46:31.480Z,99.99
2017-11-29T01:46:59.659Z,99.99
2017-11-29T01:47:27.796Z,99.99
2017-11-29T01:47:55.982Z,99.99
2017-11-29T01:48:24.058Z,99.99
2017-11-29T01:48:51.974Z,99.99
2017-11-29T01:49:20.123Z,99.99
2017-11-29T01:49:48.429Z,99.99
2017-11-29T01:50:16.507Z,99.99
2017-11-29T01:50:44.678Z,99.99
2017-11-29T01:51:12.752Z,99.99
2017-11-29T01:51:41.626Z,99.99
2017-11-29T01:52:10.189Z,99.99
2017-11-29T01:52:38.890Z,99.99
2017-11-29T01:53:06.911Z,99.99
2017-11-29T01:53:35.087Z,99.99
2017-11-29T01:54:03.299Z,99.99
2017-11-29T01:54:31.983Z,99.99
2017-11-29T01:55:00.224Z,99.99
2017-11-29T01:55:28.850Z,99.99
2017-11-29T01:55:57.221Z,99.99
2017-11-29T01:56:25.544Z,99.99
2017-11-29T01:56:53.858Z,99.99
2017-11-29T01:57:22.955Z,99.99
2017-11-29T01:57:50.789Z,99.99
2017-11-29T01:58:18.561Z,99.99
2017-11-29T01:58:46.799Z,99.99
2017-11-29T01:59:14.850Z,99.99
2017-11-29T01:59:43.115Z,99.99
2017-11-29T02:00:11.227Z,99.99
2017-11-29T02:00:39.317Z,99.99
2017-11-29T02:01:07.680Z,99.99
2017-11-29T02:01:35.936Z,99.99
2017-11-29T02:02:04.145Z,99.99
2017-11-29T02:02:32.237Z,99.99
2017-11-29T02:03:00.391Z,99.99
2017-11-29T02:03:28.455Z,99.99
2017-11-29T02:03:56.772Z,99.99
2017-11-29T02:04:24.927Z,99.99
2017-11-29T02:04:53.161Z,99.99
2017-11-29T02:05:21.597Z,99.99
2017-11-29T02:05:49.750Z,99.99
2017-11-29T02:06:18.080Z,99.99
2017-11-29T02:06:46.446Z,99.99
2017-11-29T02:07:14.374Z,99.99
2017-11-29T02:07:42.555Z,99.99
2017-11-29T02:08:10.579Z,99.99
2017-11-29T02:08:38.818Z,99.99
2017-11-29T02:09:06.859Z,99.99
2017-11-29T02:09:35.053Z,99.99
2017-11-29T02:10:03.216Z,99.99
2017-11-29T02:10:31.269Z,99.99
2017-11-29T02:10:59.391Z,99.99
2017-11-29T02:11:27.678Z,99.99
2017-11-29T02:11:55.720Z,99.99
2017-11-29T02:12:23.871Z,99.99
2017-11-29T02:12:52.047Z,99.99
2017-11-29T02:13:20.434Z,99.99
2017-11-29T02:13:48.471Z,99.99
2017-11-29T02:14:16.549Z,99.99
2017-11-29T02:14:44.697Z,99.99
2017-11-29T02:15:12.747Z,99.99
2017-11-29T02:15:40.866Z,99.99
2017-11-29T02:16:09.022Z,99.99
2017-11-29T02:16:37.089Z,99.99
2017-11-29T02:17:05.413Z,99.99
2017-11-29T02:17:33.485Z,99.99
2017-11-29T02:18:01.611Z,99.99
2017-11-29T02:18:29.594Z,99.99
2017-11-29T02:18:57.731Z,99.99
2017-11-29T02:19:25.907Z,99.99
2017-11-29T02:19:54.077Z,99.99
2017-11-29T02:20:22.246Z,99.99
2017-11-29T02:20:50.473Z,99.99
2017-11-29T02:21:18.628Z,99.99
2017-11-29T02:21:46.819Z,99.99
2017-11-29T02:22:14.879Z,99.99
2017-11-29T02:22:43.092Z,99.99
2017-11-29T02:23:11.247Z,99.99
2017-11-29T02:23:39.309Z,99.99
2017-11-29T02:24:07.335Z,99.99
2017-11-29T02:24:35.370Z,99.99
2017-11-29T02:25:03.549Z,99.99
2017-11-29T02:25:31.666Z,99.99
2017-11-29T02:25:59.899Z,99.99
2017-11-29T02:26:28.062Z,99.99
2017-11-29T02:26:56.373Z,99.99
2017-11-29T02:27:24.536Z,99.99
2017-11-29T02:27:52.593Z,99.99
2017-11-29T02:28:20.767Z,99.99
2017-11-29T02:28:48.922Z,99.99
2017-11-29T02:29:17.043Z,99.99
2017-11-29T02:29:45.215Z,99.99
2017-11-29T02:30:13.069Z,99.99
2017-11-29T02:30:41.292Z,99.99
2017-11-29T02:31:09.421Z,99.99
2017-11-29T02:31:37.598Z,99.99
2017-11-29T02:32:05.809Z,99.99
2017-11-29T02:32:33.987Z,99.99
2017-11-29T02:33:02.195Z,99.99
2017-11-29T02:33:30.316Z,99.99
2017-11-29T02:33:58.443Z,99.99
2017-11-29T02:34:26.606Z,99.99
2017-11-29T02:34:55.244Z,99.99
2017-11-29T02:35:23.633Z,99.99
2017-11-29T02:35:51.708Z,99.99
2017-11-29T02:36:19.981Z,99.99
2017-11-29T02:36:48.006Z,99.99
2017-11-29T02:37:15.969Z,99.99
2017-11-29T02:37:44.147Z,99.99
2017-11-29T02:38:12.318Z,99.99
2017-11-29T02:38:40.583Z,99.99
2017-11-29T02:39:08.686Z,99.99
2017-11-29T02:39:36.824Z,99.99
2017-11-29T02:40:05.316Z,99.99
2017-11-29T02:40:33.392Z,99.99
2017-11-29T02:41:01.551Z,99.99
2017-11-29T02:41:29.730Z,99.99
2017-11-29T02:41:58.105Z,99.99
2017-11-29T02:42:26.370Z,99.99
2017-11-29T02:42:54.547Z,99.99
2017-11-29T02:43:22.784Z,99.99
2017-11-29T02:43:50.735Z,99.99
2017-11-29T02:44:18.684Z,99.99
2017-11-29T02:44:46.785Z,99.73
2017-11-29T02:45:14.941Z,99.44
2017-11-29T02:45:43.038Z,99.98
2017-11-29T02:46:11.221Z,99.59
2017-11-29T02:46:39.344Z,99.59
2017-11-29T02:47:07.194Z,99.88
2017-11-29T02:47:35.536Z,99.78
2017-11-29T02:48:03.813Z,99.68
2017-11-29T02:48:31.928Z,99.88
2017-11-29T02:48:59.972Z,99.59
2017-11-29T02:49:28.310Z,99.73
2017-11-29T02:49:56.892Z,99.73
2017-11-29T02:50:24.862Z,98.77
2017-11-29T02:50:53.309Z,99.15
2017-11-29T02:51:21.729Z,98.86
2017-11-29T02:51:49.802Z,98.77
2017-11-29T02:52:17.991Z,99.44
2017-11-29T02:52:46.355Z,98.96
2017-11-29T02:53:14.527Z,99.54
2017-11-29T02:53:42.824Z,98.77
2017-11-29T02:54:11.046Z,99.44
2017-11-29T02:54:39.185Z,99.35
2017-11-29T02:55:07.216Z,99.54
2017-11-29T02:55:35.258Z,99.54
2017-11-29T02:56:03.343Z,99.54
2017-11-29T02:56:31.658Z,99.73
2017-11-29T02:56:59.701Z,99.99
2017-11-29T02:57:27.878Z,99.99
2017-11-29T02:57:56.022Z,99.99
2017-11-29T02:58:23.946Z,99.99
2017-11-29T02:58:52.113Z,99.99
2017-11-29T02:59:20.144Z,99.99
2017-11-29T02:59:48.432Z,99.99
2017-11-29T03:00:16.517Z,99.99
2017-11-29T03:00:44.551Z,99.99
2017-11-29T03:01:12.732Z,99.99
2017-11-29T03:01:40.918Z,99.99
2017-11-29T03:02:08.853Z,99.99
2017-11-29T03:02:37.014Z,99.99
2017-11-29T03:03:05.181Z,99.99
2017-11-29T03:03:33.375Z,99.99
2017-11-29T03:04:01.551Z,99.99
2017-11-29T03:04:29.722Z,99.99
2017-11-29T03:04:57.781Z,99.99
2017-11-29T03:05:25.956Z,99.99
2017-11-29T03:05:54.222Z,99.99
2017-11-29T03:06:22.459Z,99.99
2017-11-29T03:06:50.636Z,99.99
2017-11-29T03:07:18.814Z,99.99
2017-11-29T03:07:47.237Z,99.99
2017-11-29T03:08:15.606Z,99.99
2017-11-29T03:08:43.678Z,99.99
2017-11-29T03:09:11.848Z,99.99
2017-11-29T03:09:40.308Z,99.99
2017-11-29T03:10:08.376Z,99.99
2017-11-29T03:10:36.442Z,99.99
2017-11-29T03:11:04.443Z,99.99
2017-11-29T03:11:32.668Z,99.99
2017-11-29T03:12:01.587Z,99.99
2017-11-29T03:12:29.561Z,99.99
2017-11-29T03:12:58.199Z,99.99
2017-11-29T03:13:26.418Z,99.99
2017-11-29T03:13:54.625Z,99.99
2017-11-29T03:14:22.689Z,99.99
2017-11-29T03:14:50.862Z,99.99
2017-11-29T03:15:19.135Z,99.99
2017-11-29T03:15:47.289Z,99.99
2017-11-29T03:16:15.244Z,99.99
2017-11-29T03:16:43.605Z,99.99
2017-11-29T03:17:11.663Z,99.99
2017-11-29T03:17:39.635Z,99.99
2017-11-29T03:18:08.101Z,99.99
2017-11-29T03:18:36.280Z,99.99
2017-11-29T03:19:04.526Z,99.99
2017-11-29T03:19:32.899Z,99.99
2017-11-29T03:20:01.009Z,99.99
2017-11-29T03:20:29.084Z,99.99
2017-11-29T03:20:57.256Z,99.99
2017-11-29T03:21:25.393Z,99.99
2017-11-29T03:21:53.883Z,99.99
2017-11-29T03:22:22.015Z,99.99
2017-11-29T03:22:50.185Z,99.99
2017-11-29T03:23:18.351Z,99.99
2017-11-29T03:23:46.571Z,99.99
2017-11-29T03:24:14.756Z,99.99
2017-11-29T03:24:42.866Z,99.99
2017-11-29T03:25:11.031Z,99.99
2017-11-29T03:25:39.254Z,99.99
2017-11-29T03:26:07.312Z,99.99
2017-11-29T03:26:35.448Z,99.99
2017-11-29T03:27:03.945Z,99.99
2017-11-29T03:27:32.162Z,99.99
2017-11-29T03:28:00.317Z,99.99
2017-11-29T03:28:28.516Z,99.99
2017-11-29T03:28:56.619Z,99.99
2017-11-29T03:29:24.726Z,99.99
2017-11-29T03:29:53.322Z,99.99
2017-11-29T03:30:21.756Z,99.99
2017-11-29T03:30:49.779Z,99.99
2017-11-29T03:31:17.843Z,99.99
2017-11-29T03:31:45.984Z,99.99
2017-11-29T03:32:14.192Z,99.99
2017-11-29T03:32:42.329Z,99.99
2017-11-29T03:33:10.473Z,99.99
2017-11-29T03:33:38.582Z,99.99
2017-11-29T03:34:06.432Z,99.99
2017-11-29T03:34:34.602Z,99.99
2017-11-29T03:35:02.906Z,99.99
2017-11-29T03:35:31.006Z,99.99
2017-11-29T03:35:59.161Z,99.99
2017-11-29T03:36:27.097Z,99.99
2017-11-29T03:36:55.248Z,99.99
2017-11-29T03:37:23.429Z,99.99
2017-11-29T03:37:51.584Z,99.99
2017-11-29T03:38:19.811Z,99.99
2017-11-29T03:38:48.016Z,99.99
2017-11-29T03:39:16.197Z,99.99
2017-11-29T03:39:44.364Z,99.99
2017-11-29T03:40:13.276Z,99.99
2017-11-29T03:40:41.394Z,99.99
2017-11-29T03:41:09.451Z,99.99
2017-11-29T03:41:37.542Z,99.99
2017-11-29T03:42:05.695Z,99.99
2017-11-29T03:42:33.818Z,99.99
2017-11-29T03:43:02.063Z,99.99
2017-11-29T03:43:30.112Z,99.99
2017-11-29T03:43:58.217Z,99.99
2017-11-29T03:44:26.422Z,99.99
2017-11-29T03:44:55.030Z,99.99
2017-11-29T03:45:23.231Z,99.99
2017-11-29T03:45:51.398Z,99.99
2017-11-29T03:46:19.566Z,99.99
2017-11-29T03:46:47.671Z,99.99
2017-11-29T03:47:15.753Z,99.99
2017-11-29T03:47:43.907Z,99.99
2017-11-29T03:48:11.921Z,99.99
2017-11-29T03:48:40.405Z,99.99
2017-11-29T03:49:08.518Z,99.99
2017-11-29T03:49:36.547Z,99.99
2017-11-29T03:50:04.713Z,99.99
2017-11-29T03:50:32.912Z,99.99
2017-11-29T03:51:01.074Z,99.99
2017-11-29T03:51:29.270Z,99.99
2017-11-29T03:51:57.302Z,99.99
2017-11-29T03:52:26.964Z,99.99
2017-11-29T03:52:55.045Z,99.99
2017-11-29T03:53:23.246Z,99.99
2017-11-29T03:53:51.491Z,99.99
2017-11-29T03:54:19.578Z,99.99
2017-11-29T03:54:47.670Z,99.99
2017-11-29T03:55:15.881Z,99.99
2017-11-29T03:55:43.956Z,99.99
2017-11-29T03:56:12.127Z,99.99
2017-11-29T03:56:40.403Z,99.99
2017-11-29T03:57:08.564Z,99.99
2017-11-29T03:57:36.667Z,99.99
2017-11-29T03:58:04.914Z,99.99
2017-11-29T03:58:33.527Z,99.99
2017-11-29T03:59:01.589Z,99.99
2017-11-29T03:59:29.735Z,99.99
2017-11-29T03:59:57.789Z,99.99
2017-11-29T04:00:25.942Z,99.99
2017-11-29T04:00:54.112Z,99.99
2017-11-29T04:01:22.362Z,99.99
2017-11-29T04:01:50.461Z,99.99
2017-11-29T04:02:18.747Z,99.99
2017-11-29T04:02:46.860Z,99.99
2017-11-29T04:03:15.018Z,99.99
2017-11-29T04:03:43.206Z,99.99
2017-11-29T04:04:11.331Z,99.99
2017-11-29T04:04:39.368Z,99.99
2017-11-29T04:05:07.532Z,99.99
2017-11-29T04:05:35.593Z,99.99
2017-11-29T04:06:03.583Z,99.99
2017-11-29T04:06:31.753Z,99.99
2017-11-29T04:06:59.903Z,99.99
2017-11-29T04:07:27.836Z,99.99
2017-11-29T04:07:56.036Z,99.99
2017-11-29T04:08:24.173Z,99.99
2017-11-29T04:08:52.366Z,99.99
2017-11-29T04:09:20.515Z,99.99
2017-11-29T04:09:48.679Z,99.99
2017-11-29T04:10:16.833Z,99.99
2017-11-29T04:10:45.054Z,99.99
2017-11-29T04:11:13.201Z,99.99
2017-11-29T04:11:41.360Z,99.99
2017-11-29T04:12:09.484Z,99.99
2017-11-29T04:12:37.465Z,99.99
2017-11-29T04:13:05.654Z,99.99
2017-11-29T04:13:33.807Z,99.99
2017-11-29T04:14:02.141Z,99.99
2017-11-29T04:14:30.279Z,99.99
2017-11-29T04:14:58.369Z,99.99
2017-11-29T04:15:26.396Z,99.99
2017-11-29T04:15:54.556Z,99.99
2017-11-29T04:16:22.473Z,99.99
2017-11-29T04:16:50.782Z,99.99
2017-11-29T04:17:19.000Z,99.99
2017-11-29T04:17:47.071Z,99.99
2017-11-29T04:18:15.300Z,99.99
2017-11-29T04:18:43.587Z,99.99
2017-11-29T04:19:11.967Z,99.99
2017-11-29T04:19:40.112Z,99.99
2017-11-29T04:20:08.069Z,99.99
2017-11-29T04:20:35.990Z,99.99
2017-11-29T04:21:04.148Z,99.99
2017-11-29T04:21:32.242Z,99.99
2017-11-29T04:22:00.323Z,99.99
2017-11-29T04:22:28.284Z,99.99
2017-11-29T04:22:56.523Z,99.99
2017-11-29T04:23:24.663Z,99.99
2017-11-29T04:23:53.053Z,99.99
2017-11-29T04:24:21.110Z,99.99
2017-11-29T04:24:49.120Z,99.99
2017-11-29T04:25:17.176Z,99.99
2017-11-29T04:25:45.337Z,99.99
2017-11-29T04:26:13.518Z,99.99
2017-11-29T04:26:41.656Z,99.99
2017-11-29T04:27:09.797Z,99.99
2017-11-29T04:27:37.968Z,99.99
2017-11-29T04:28:06.238Z,99.99
2017-11-29T04:28:34.726Z,99.99
2017-11-29T04:29:02.940Z,99.99
2017-11-29T04:29:31.075Z,99.99
2017-11-29T04:29:59.157Z,99.99
2017-11-29T04:30:27.363Z,99.99
2017-11-29T04:30:55.417Z,99.99
2017-11-29T04:31:23.521Z,99.99
2017-11-29T04:31:51.468Z,99.99
2017-11-29T04:32:19.654Z,99.99
2017-11-29T04:32:47.613Z,99.99
2017-11-29T04:33:15.785Z,99.99
2017-11-29T04:33:43.904Z,99.99
2017-11-29T04:34:12.140Z,99.99
2017-11-29T04:34:40.359Z,99.99
2017-11-29T04:35:08.522Z,99.99
2017-11-29T04:35:36.550Z,99.99
2017-11-29T04:36:04.452Z,99.99
2017-11-29T04:36:32.399Z,99.99
2017-11-29T04:37:00.594Z,99.99
2017-11-29T04:37:28.746Z,99.99
2017-11-29T04:37:56.807Z,99.99
2017-11-29T04:38:24.991Z,99.99
2017-11-29T04:38:53.132Z,99.99
2017-11-29T04:39:21.306Z,99.99
2017-11-29T04:39:49.449Z,99.99
2017-11-29T04:40:17.774Z,99.99
2017-11-29T04:40:45.948Z,99.99
2017-11-29T04:41:14.080Z,99.99
2017-11-29T04:41:42.245Z,99.99
2017-11-29T04:42:10.389Z,99.99
2017-11-29T04:42:38.582Z,99.99
2017-11-29T04:43:06.609Z,99.99
2017-11-29T04:43:34.702Z,99.99
2017-11-29T04:44:02.683Z,99.99
2017-11-29T04:44:30.919Z,99.99
2017-11-29T04:44:58.870Z,99.99
2017-11-29T04:45:27.016Z,99.99
2017-11-29T04:45:55.267Z,99.99
2017-11-29T04:46:23.458Z,99.99
2017-11-29T04:46:51.592Z,99.99
2017-11-29T04:47:19.609Z,99.99
2017-11-29T04:47:47.816Z,99.99
2017-11-29T04:48:15.883Z,99.99
2017-11-29T04:48:44.143Z,99.99
2017-11-29T04:49:12.617Z,99.99
2017-11-29T04:49:40.631Z,99.99
2017-11-29T04:50:08.712Z,99.99
2017-11-29T04:50:36.775Z,99.99
2017-11-29T04:51:04.995Z,99.99
2017-11-29T04:51:33.060Z,99.99
2017-11-29T04:52:01.135Z,99.99
2017-11-29T04:52:29.091Z,99.99
2017-11-29T04:52:57.066Z,99.99
2017-11-29T04:53:25.082Z,99.99
2017-11-29T04:53:53.275Z,99.99
2017-11-29T04:54:21.113Z,99.99
2017-11-29T04:54:49.453Z,99.99
2017-11-29T04:55:17.641Z,99.99
2017-11-29T04:55:45.826Z,99.99
2017-11-29T04:56:13.995Z,99.99
2017-11-29T04:56:42.082Z,99.99
2017-11-29T04:57:10.487Z,99.99
2017-11-29T04:57:39.453Z,99.99
2017-11-29T04:58:07.817Z,99.99
2017-11-29T04:58:35.963Z,99.99
2017-11-29T04:59:03.889Z,99.99
2017-11-29T04:59:32.065Z,99.99
2017-11-29T05:00:00.206Z,99.99
2017-11-29T05:00:28.315Z,99.99
2017-11-29T05:00:56.386Z,99.99
2017-11-29T05:01:24.857Z,99.99
2017-11-29T05:01:53.009Z,99.99
2017-11-29T05:02:21.170Z,99.99
2017-11-29T05:02:49.413Z,99.99
2017-11-29T05:03:17.600Z,99.99
2017-11-29T05:03:45.690Z,99.99
2017-11-29T05:04:13.904Z,99.99
2017-11-29T05:04:42.253Z,99.99
2017-11-29T05:05:10.802Z,99.99
2017-11-29T05:05:38.980Z,99.99
2017-11-29T05:06:07.135Z,99.99
2017-11-29T05:06:35.056Z,99.99
2017-11-29T05:07:03.269Z,99.99
2017-11-29T05:07:31.430Z,99.99
2017-11-29T05:07:59.633Z,99.99
2017-11-29T05:08:27.733Z,99.99
2017-11-29T05:08:55.823Z,99.99
2017-11-29T05:09:24.073Z,99.99
2017-11-29T05:09:52.160Z,99.99
2017-11-29T05:10:20.218Z,99.99
2017-11-29T05:10:48.380Z,99.99
2017-11-29T05:11:16.789Z,99.99
2017-11-29T05:11:45.006Z,99.99
2017-11-29T05:12:12.906Z,99.99
2017-11-29T05:12:41.053Z,99.99
2017-11-29T05:13:09.184Z,99.99
2017-11-29T05:13:37.308Z,99.99
2017-11-29T05:14:05.532Z,99.99
2017-11-29T05:14:33.712Z,99.99
2017-11-29T05:15:01.890Z,99.99
2017-11-29T05:15:30.076Z,99.99
2017-11-29T05:15:58.217Z,99.99
2017-11-29T05:16:26.188Z,99.99
2017-11-29T05:16:54.385Z,99.99
2017-11-29T05:17:22.591Z,99.99
2017-11-29T05:17:50.751Z,99.99
2017-11-29T05:18:19.263Z,99.99
2017-11-29T05:18:47.246Z,99.99
2017-11-29T05:19:15.407Z,99.99
2017-11-29T05:19:43.796Z,99.99
2017-11-29T05:20:12.054Z,99.99
2017-11-29T05:20:40.195Z,99.99
2017-11-29T05:21:08.369Z,99.99
2017-11-29T05:21:36.525Z,99.99
2017-11-29T05:22:04.723Z,99.99
2017-11-29T05:22:32.793Z,99.99
2017-11-29T05:23:00.949Z,99.99
2017-11-29T05:23:29.229Z,99.99
2017-11-29T05:23:57.327Z,99.99
2017-11-29T05:24:25.533Z,99.99
2017-11-29T05:24:53.518Z,99.99
2017-11-29T05:25:21.577Z,99.99
2017-11-29T05:25:49.798Z,99.99
2017-11-29T05:26:17.861Z,99.99
2017-11-29T05:26:46.130Z,99.99
2017-11-29T05:27:14.196Z,99.99
2017-11-29T05:27:42.404Z,99.99
2017-11-29T05:28:10.622Z,99.99
2017-11-29T05:28:38.696Z,99.99
2017-11-29T05:29:06.851Z,99.99
2017-11-29T05:29:34.942Z,99.99
2017-11-29T05:30:03.072Z,99.99
2017-11-29T05:30:31.138Z,99.99
2017-11-29T05:30:59.316Z,99.99
2017-11-29T05:31:27.378Z,99.99
2017-11-29T05:31:55.432Z,99.99
2017-11-29T05:32:23.589Z,99.99
2017-11-29T05:32:51.699Z,99.99
2017-11-29T05:33:19.808Z,99.99
2017-11-29T05:33:48.049Z,99.99
2017-11-29T05:34:16.214Z,99.99
2017-11-29T05:34:44.484Z,99.99
2017-11-29T05:35:12.612Z,99.99
2017-11-29T05:35:40.795Z,99.99
2017-11-29T05:36:09.087Z,99.99
2017-11-29T05:36:37.113Z,99.99
2017-11-29T05:37:05.190Z,99.99
2017-11-29T05:37:33.302Z,99.99
2017-11-29T05:38:01.464Z,99.99
2017-11-29T05:38:29.509Z,99.99
2017-11-29T05:38:57.698Z,99.99
2017-11-29T05:39:25.749Z,99.99
2017-11-29T05:39:53.717Z,99.99
2017-11-29T05:40:21.913Z,99.99
2017-11-29T05:40:49.992Z,99.99
2017-11-29T05:41:18.147Z,99.99
2017-11-29T05:41:46.217Z,99.99
2017-11-29T05:42:14.376Z,99.99
2017-11-29T05:42:42.450Z,99.99
2017-11-29T05:43:10.626Z,99.99
2017-11-29T05:43:38.799Z,99.99
2017-11-29T05:44:06.921Z,99.99
2017-11-29T05:44:35.281Z,99.99
2017-11-29T05:45:03.534Z,99.99
2017-11-29T05:45:31.755Z,99.99
2017-11-29T05:45:59.909Z,99.99
2017-11-29T05:46:27.976Z,99.99
2017-11-29T05:46:56.071Z,99.99
2017-11-29T05:47:24.105Z,99.99
2017-11-29T05:47:52.271Z,99.99
2017-11-29T05:48:20.804Z,99.99
2017-11-29T05:48:48.727Z,99.99
2017-11-29T05:49:16.861Z,99.99
2017-11-29T05:49:45.101Z,99.99
2017-11-29T05:50:13.401Z,99.99
2017-11-29T05:50:41.546Z,99.99
2017-11-29T05:51:09.680Z,99.99
2017-11-29T05:51:37.834Z,99.99
2017-11-29T05:52:05.791Z,99.99
2017-11-29T05:52:33.989Z,99.99
2017-11-29T05:53:02.003Z,99.99
2017-11-29T05:53:30.198Z,99.99
2017-11-29T05:53:58.381Z,99.99
2017-11-29T05:54:26.679Z,99.99
2017-11-29T05:54:54.845Z,99.99
2017-11-29T05:55:22.903Z,99.99
2017-11-29T05:55:51.041Z,99.99
2017-11-29T05:56:19.113Z,99.99
2017-11-29T05:56:47.302Z,99.99
2017-11-29T05:57:15.310Z,99.99
2017-11-29T05:57:43.615Z,99.99
2017-11-29T05:58:11.762Z,99.99
2017-11-29T05:58:39.990Z,99.99
2017-11-29T05:59:08.156Z,99.99
2017-11-29T05:59:36.329Z,99.99
2017-11-29T06:00:04.548Z,99.99
2017-11-29T06:00:32.599Z,99.99
2017-11-29T06:01:00.673Z,99.99
2017-11-29T06:01:28.787Z,99.99
2017-11-29T06:01:56.878Z,99.99
2017-11-29T06:02:25.055Z,99.99
2017-11-29T06:02:53.188Z,99.99
2017-11-29T06:03:21.367Z,99.99